Time;durP1;ratioP1;P1;durP2;ratioP2;P2;SDS_P1;SDS_P2;PMS_P1;PMS_P2;Temp;Humidity;BMP_temperature;BMP_pressure;BME280_temperature;BME280_humidity;BME280_pressure;Samples;Min_cycle;Max_cycle;Signal;HPM_P1;HPM_P2
2021/11/27 00:01:22;;;;;;;4.03;2.17;;;6.60;93.00;;;;;;4994518;28;20454;-66
2021/11/27 00:03:49;;;;;;;2.20;2.00;;;6.60;93.00;;;;;;4994436;28;20454;-67
2021/11/27 00:06:16;;;;;;;3.63;2.20;;;6.60;93.00;;;;;;4994042;28;20546;-67
2021/11/27 00:08:43;;;;;;;2.20;2.00;;;6.60;93.10;;;;;;4994195;28;20472;-67
2021/11/27 00:11:10;;;;;;;3.50;2.53;;;6.60;93.00;;;;;;4994162;28;20488;-67
2021/11/27 00:13:38;;;;;;;4.10;2.93;;;6.60;93.00;;;;;;4994168;28;20450;-67
2021/11/27 00:16:05;;;;;;;3.60;3.30;;;6.60;93.10;;;;;;4994111;28;20448;-67
2021/11/27 00:18:32;;;;;;;5.93;3.30;;;6.60;93.10;;;;;;4994099;28;20464;-67
2021/11/27 00:21:02;;;;;;;5.90;2.70;;;6.60;93.10;;;;;;4993879;28;20464;-66
2021/11/27 00:23:30;;;;;;;5.03;2.87;;;6.60;93.20;;;;;;4993855;28;20445;-66
2021/11/27 00:25:57;;;;;;;2.80;2.60;;;6.60;93.10;;;;;;4993735;28;20459;-66
2021/11/27 00:28:25;;;;;;;3.37;3.07;;;6.60;93.10;;;;;;4993646;28;20813;-66
2021/11/27 00:30:56;;;;;;;3.10;2.90;;;6.60;93.30;;;;;;4993944;28;20538;-66
2021/11/27 00:33:23;;;;;;;3.63;3.33;;;6.60;93.20;;;;;;4994177;28;20440;-66
2021/11/27 00:35:50;;;;;;;2.97;2.77;;;6.60;93.20;;;;;;4997809;28;20455;-66
2021/11/27 00:38:17;;;;;;;4.00;3.10;;;6.60;93.30;;;;;;4997778;28;20456;-66
2021/11/27 00:40:45;;;;;;;4.30;2.73;;;6.70;93.40;;;;;;4997996;28;20451;-67
2021/11/27 00:43:13;;;;;;;3.40;2.57;;;6.70;93.30;;;;;;4998099;28;20463;-67
2021/11/27 00:45:41;;;;;;;2.50;2.30;;;6.70;93.30;;;;;;4997604;28;20989;-67
2021/11/27 00:48:12;;;;;;;3.10;2.30;;;6.70;93.40;;;;;;4997812;28;20459;-68
2021/11/27 00:50:42;;;;;;;2.60;1.60;;;6.70;93.50;;;;;;4997496;28;20472;-67
2021/11/27 00:53:09;;;;;;;2.00;1.80;;;6.70;93.70;;;;;;4997810;28;20449;-67
2021/11/27 00:55:36;;;;;;;2.03;1.83;;;6.70;93.90;;;;;;4997693;28;20804;-67
2021/11/27 00:58:05;;;;;;;1.90;1.80;;;6.70;94.10;;;;;;4997688;28;20456;-67
2021/11/27 01:00:36;;;;;;;6.27;1.97;;;6.70;94.20;;;;;;4997551;28;20802;-67
2021/11/27 01:03:05;;;;;;;2.37;2.17;;;6.70;94.30;;;;;;4997637;28;20542;-67
2021/11/27 01:05:35;;;;;;;2.00;1.90;;;6.70;94.40;;;;;;4998161;28;20459;-67
2021/11/27 01:08:03;;;;;;;2.27;2.00;;;6.70;94.40;;;;;;4997629;28;20460;-67
2021/11/27 01:10:33;;;;;;;6.03;1.97;;;6.70;94.40;;;;;;4997308;28;20492;-66
2021/11/27 01:13:00;;;;;;;2.23;2.03;;;6.60;94.40;;;;;;4997469;28;20436;-66
2021/11/27 01:15:30;;;;;;;2.00;1.90;;;6.60;94.50;;;;;;4997446;28;20448;-66
2021/11/27 01:17:57;;;;;;;4.37;2.10;;;6.60;94.60;;;;;;4997338;28;20444;-66
2021/11/27 01:20:28;;;;;;;3.30;2.37;;;6.50;94.60;;;;;;4996821;28;20476;-66
2021/11/27 01:22:56;;;;;;;2.57;2.37;;;6.50;94.90;;;;;;4997360;28;20505;-67
2021/11/27 01:25:24;;;;;;;2.63;2.00;;;6.50;95.00;;;;;;4997587;28;20456;-66
2021/11/27 01:27:51;;;;;;;7.33;2.47;;;6.50;95.00;;;;;;4997297;28;20445;-66
2021/11/27 01:30:19;;;;;;;2.90;2.00;;;6.50;95.10;;;;;;4996712;28;21008;-66
2021/11/27 01:32:46;;;;;;;2.57;2.37;;;6.40;95.10;;;;;;4997094;28;20451;-66
2021/11/27 01:35:14;;;;;;;2.60;2.40;;;6.30;95.20;;;;;;4997092;28;20452;-66
2021/11/27 01:37:40;;;;;;;2.77;2.20;;;6.30;95.30;;;;;;4997041;28;20455;-66
2021/11/27 01:40:15;;;;;;;2.43;2.23;;;6.30;95.50;;;;;;4996569;28;20880;-66
2021/11/27 01:42:42;;;;;;;3.83;2.07;;;6.30;95.50;;;;;;4996979;28;20618;-66
2021/11/27 01:45:12;;;;;;;2.30;2.07;;;6.30;95.40;;;;;;4995825;28;20452;-66
2021/11/27 01:47:39;;;;;;;1.70;1.60;;;6.30;95.50;;;;;;4996454;28;20452;-66
2021/11/27 01:50:08;;;;;;;3.33;1.83;;;6.30;95.50;;;;;;4996631;28;20488;-66
2021/11/27 01:52:34;;;;;;;6.13;2.30;;;6.30;95.50;;;;;;4996769;28;20460;-66
2021/11/27 01:55:01;;;;;;;3.90;1.90;;;6.30;95.40;;;;;;4996997;28;20502;-66
2021/11/27 01:57:30;;;;;;;3.33;2.50;;;6.30;95.40;;;;;;4996387;28;20973;-66
2021/11/27 01:59:58;;;;;;;3.10;2.07;;;6.20;95.50;;;;;;4996490;28;20488;-66
2021/11/27 02:02:25;;;;;;;6.20;2.43;;;6.20;95.60;;;;;;4996235;28;20491;-66
2021/11/27 02:04:52;;;;;;;4.00;2.13;;;6.20;95.80;;;;;;4996515;28;20811;-67
2021/11/27 02:07:19;;;;;;;2.43;2.20;;;6.20;95.70;;;;;;4996509;28;20480;-67
2021/11/27 02:09:46;;;;;;;2.90;2.13;;;6.20;95.70;;;;;;4996316;28;20472;-67
2021/11/27 02:12:13;;;;;;;3.27;3.00;;;6.20;95.70;;;;;;4996048;28;20816;-67
2021/11/27 02:14:42;;;;;;;2.90;2.70;;;6.30;95.70;;;;;;4996261;28;20463;-67
2021/11/27 02:17:10;;;;;;;3.00;2.80;;;6.30;95.90;;;;;;4996303;28;20452;-67
2021/11/27 02:19:37;;;;;;;4.10;3.70;;;6.30;95.60;;;;;;4996038;28;20483;-67
2021/11/27 02:22:06;;;;;;;5.07;4.20;;;6.20;95.40;;;;;;4996185;28;20444;-67
2021/11/27 02:24:32;;;;;;;5.37;4.87;;;6.00;95.10;;;;;;4995778;28;20970;-66
2021/11/27 02:27:00;;;;;;;6.07;5.57;;;5.80;95.40;;;;;;4995807;28;20444;-66
2021/11/27 02:29:29;;;;;;;5.53;5.13;;;5.80;95.60;;;;;;4995954;28;20480;-66
2021/11/27 02:31:58;;;;;;;5.97;5.47;;;5.70;95.40;;;;;;4995885;28;20480;-66
2021/11/27 02:34:25;;;;;;;5.90;5.40;;;5.50;95.00;;;;;;4995995;28;20448;-66
2021/11/27 02:36:54;;;;;;;5.40;4.90;;;5.30;95.00;;;;;;4995850;28;20456;-66
2021/11/27 02:39:23;;;;;;;6.00;5.50;;;5.30;95.30;;;;;;4995771;28;20468;-66
2021/11/27 02:41:53;;;;;;;6.03;5.53;;;5.20;95.30;;;;;;4995788;28;20444;-66
2021/11/27 02:44:20;;;;;;;6.07;5.50;;;5.10;95.50;;;;;;4995756;28;20452;-66
2021/11/27 02:46:47;;;;;;;5.90;5.40;;;5.00;95.60;;;;;;4995666;28;20444;-66
2021/11/27 02:49:14;;;;;;;5.80;5.30;;;5.00;95.80;;;;;;4995253;28;20472;-66
2021/11/27 02:51:41;;;;;;;5.93;5.43;;;5.00;95.80;;;;;;4995551;28;20471;-66
2021/11/27 02:54:08;;;;;;;6.20;5.60;;;4.90;95.40;;;;;;4995696;28;20452;-66
2021/11/27 02:56:37;;;;;;;6.00;5.50;;;5.00;95.60;;;;;;4995132;28;20456;-66
2021/11/27 02:59:12;;;;;;;6.00;5.50;;;4.90;95.50;;;;;;4995447;28;20802;-66
2021/11/27 03:01:39;;;;;;;5.90;5.30;;;4.80;95.50;;;;;;4995379;28;20822;-66
2021/11/27 03:04:06;;;;;;;5.00;4.60;;;4.80;95.60;;;;;;4995077;28;20961;-66
2021/11/27 03:06:33;;;;;;;4.50;4.20;;;4.70;95.60;;;;;;4995351;28;20452;-66
2021/11/27 03:09:00;;;;;;;4.20;3.90;;;4.70;95.70;;;;;;4995574;28;20867;-66
2021/11/27 03:11:28;;;;;;;4.60;4.30;;;4.70;95.70;;;;;;4994799;28;21018;-66
2021/11/27 03:13:56;;;;;;;4.10;3.80;;;4.70;95.70;;;;;;4994857;28;20934;-66
2021/11/27 03:16:26;;;;;;;5.13;4.73;;;4.60;96.00;;;;;;4995152;28;20463;-66
2021/11/27 03:18:53;;;;;;;4.37;4.07;;;4.60;95.90;;;;;;4995044;28;20472;-66
2021/11/27 03:21:20;;;;;;;3.60;3.40;;;4.60;95.90;;;;;;4994723;28;20460;-66
2021/11/27 03:23:47;;;;;;;4.40;4.10;;;4.70;96.00;;;;;;4994633;28;20479;-66
2021/11/27 03:26:14;;;;;;;4.00;3.70;;;4.60;96.00;;;;;;4994776;28;20462;-66
2021/11/27 03:28:41;;;;;;;3.97;3.70;;;4.60;96.10;;;;;;4994545;28;20472;-66
2021/11/27 03:31:09;;;;;;;4.10;3.70;;;4.60;96.10;;;;;;4994467;28;20997;-66
2021/11/27 03:33:36;;;;;;;5.27;4.00;;;4.70;96.20;;;;;;4994565;28;20816;-66
2021/11/27 03:36:03;;;;;;;4.30;4.00;;;4.70;96.20;;;;;;4994774;28;20452;-66
2021/11/27 03:38:29;;;;;;;4.40;4.10;;;4.70;96.30;;;;;;4994716;28;20455;-66
2021/11/27 03:40:56;;;;;;;4.83;4.43;;;4.70;96.50;;;;;;4994708;28;20441;-66
2021/11/27 03:43:23;;;;;;;3.87;3.57;;;4.80;96.60;;;;;;4994722;28;20452;-66
2021/11/27 03:45:50;;;;;;;4.00;3.63;;;4.80;96.60;;;;;;4994655;28;20818;-66
2021/11/27 03:48:26;;;;;;;4.70;4.30;;;4.80;96.70;;;;;;4994544;28;20455;-66
2021/11/27 03:50:55;;;;;;;4.60;4.20;;;4.80;96.70;;;;;;4994524;28;20467;-66
2021/11/27 03:53:25;;;;;;;4.80;3.60;;;4.80;96.70;;;;;;4994511;28;20444;-66
2021/11/27 03:55:53;;;;;;;5.07;3.97;;;4.90;96.80;;;;;;4994485;28;20440;-66
2021/11/27 03:58:21;;;;;;;4.50;4.20;;;4.90;96.70;;;;;;4994392;28;20433;-66
2021/11/27 04:00:49;;;;;;;4.00;3.70;;;4.80;96.70;;;;;;4994415;28;20447;-66
2021/11/27 04:03:18;;;;;;;4.27;3.90;;;4.70;96.80;;;;;;4994348;28;20546;-66
2021/11/27 04:05:50;;;;;;;4.77;4.27;;;4.80;97.00;;;;;;4994305;28;20923;-66
2021/11/27 04:08:18;;;;;;;4.57;4.20;;;4.80;97.10;;;;;;4993609;28;20433;-66
2021/11/27 04:10:45;;;;;;;5.00;4.50;;;4.90;97.10;;;;;;4994130;28;20480;-66
2021/11/27 04:13:12;;;;;;;5.00;4.60;;;4.90;97.00;;;;;;4994229;28;20446;-66
2021/11/27 04:15:39;;;;;;;5.90;5.30;;;4.80;96.90;;;;;;4994140;28;20456;-66
2021/11/27 04:18:06;;;;;;;7.20;6.50;;;4.80;96.90;;;;;;4994165;28;20458;-66
2021/11/27 04:20:35;;;;;;;7.23;6.40;;;4.80;97.10;;;;;;4993633;28;21008;-66
2021/11/27 04:23:02;;;;;;;8.37;6.70;;;4.80;97.10;;;;;;4994140;28;20452;-66
2021/11/27 04:25:29;;;;;;;7.70;6.60;;;4.90;97.20;;;;;;4994072;28;20471;-66
2021/11/27 04:27:56;;;;;;;7.90;7.10;;;4.90;97.10;;;;;;4993800;28;20931;-66
2021/11/27 04:30:28;;;;;;;11.77;7.10;;;4.90;97.10;;;;;;4993620;28;20472;-66
2021/11/27 04:32:55;;;;;;;8.00;6.93;;;4.90;96.90;;;;;;4994012;28;20444;-66
2021/11/27 04:35:24;;;;;;;9.33;8.10;;;4.90;96.90;;;;;;4993710;28;20939;-66
2021/11/27 04:37:52;;;;;;;9.23;7.63;;;4.90;96.70;;;;;;4993924;28;20457;-66
2021/11/27 04:40:19;;;;;;;8.77;7.97;;;4.90;96.60;;;;;;4993939;28;20468;-66
2021/11/27 04:42:47;;;;;;;9.67;8.67;;;4.80;96.70;;;;;;4993950;28;20444;-66
2021/11/27 04:45:15;;;;;;;10.43;8.90;;;4.80;96.80;;;;;;4993991;28;20448;-66
2021/11/27 04:47:41;;;;;;;12.37;9.33;;;4.80;97.00;;;;;;4993903;28;20452;-66
2021/11/27 04:50:10;;;;;;;10.10;8.70;;;4.80;97.00;;;;;;4993495;28;20479;-66
2021/11/27 04:52:38;;;;;;;9.23;7.77;;;4.90;97.00;;;;;;4993740;28;20487;-67
2021/11/27 04:55:08;;;;;;;9.60;8.60;;;4.90;96.90;;;;;;4993894;28;20449;-66
2021/11/27 04:57:36;;;;;;;10.47;9.30;;;4.90;96.80;;;;;;4993881;28;20451;-66
2021/11/27 05:00:05;;;;;;;11.43;9.60;;;4.90;96.90;;;;;;4993459;28;20471;-66
2021/11/27 05:02:32;;;;;;;11.77;9.27;;;4.90;96.60;;;;;;4993783;28;20444;-66
2021/11/27 05:04:59;;;;;;;9.23;7.97;;;4.90;96.70;;;;;;4993721;28;20444;-66
2021/11/27 05:07:25;;;;;;;9.00;8.03;;;4.90;96.80;;;;;;4993702;28;20444;-66
2021/11/27 05:09:52;;;;;;;12.30;8.27;;;5.00;96.50;;;;;;4993638;28;20464;-66
2021/11/27 05:12:20;;;;;;;9.40;8.00;;;4.90;96.20;;;;;;4993596;28;20839;-66
2021/11/27 05:14:47;;;;;;;9.27;8.30;;;4.80;96.20;;;;;;4993649;28;20463;-66
2021/11/27 05:17:14;;;;;;;9.00;7.70;;;4.80;96.30;;;;;;4993656;28;20444;-66
2021/11/27 05:19:41;;;;;;;10.33;7.30;;;4.80;96.30;;;;;;4993952;28;20467;-66
2021/11/27 05:22:08;;;;;;;10.40;7.63;;;4.80;96.30;;;;;;4997072;28;20432;-66
2021/11/27 05:24:34;;;;;;;8.40;7.50;;;4.80;96.20;;;;;;4997229;28;20448;-66
2021/11/27 05:27:01;;;;;;;9.33;7.40;;;4.80;96.10;;;;;;4996915;28;20452;-66
2021/11/27 05:29:29;;;;;;;8.00;7.20;;;4.80;96.00;;;;;;4997093;28;20490;-66
2021/11/27 05:32:03;;;;;;;9.33;7.93;;;4.90;95.90;;;;;;4997155;28;20486;-66
2021/11/27 05:34:36;;;;;;;12.20;7.60;;;4.90;95.80;;;;;;4997094;28;20432;-66
2021/11/27 05:37:05;;;;;;;9.10;7.20;;;5.00;95.80;;;;;;4997095;28;20432;-66
2021/11/27 05:39:32;;;;;;;10.60;7.83;;;5.00;96.00;;;;;;4996942;28;20467;-66
2021/11/27 05:41:58;;;;;;;8.33;7.20;;;5.10;95.60;;;;;;4996972;28;20440;-67
2021/11/27 05:44:26;;;;;;;8.40;7.60;;;5.10;95.40;;;;;;4996603;28;20455;-67
2021/11/27 05:46:54;;;;;;;10.37;8.30;;;5.20;95.40;;;;;;4996840;28;20444;-67
2021/11/27 05:49:21;;;;;;;8.63;7.67;;;5.20;95.40;;;;;;4996719;28;20548;-67
2021/11/27 05:51:48;;;;;;;10.13;8.20;;;5.20;95.30;;;;;;4996637;28;20480;-67
2021/11/27 05:54:14;;;;;;;9.10;8.20;;;5.30;95.30;;;;;;4996425;28;20459;-67
2021/11/27 05:56:41;;;;;;;8.93;7.73;;;5.30;95.20;;;;;;4997196;28;20910;-67
2021/11/27 05:59:08;;;;;;;8.90;8.00;;;5.30;95.10;;;;;;4996654;28;20470;-67
2021/11/27 06:01:35;;;;;;;8.27;7.37;;;5.30;95.00;;;;;;4996193;28;20441;-67
2021/11/27 06:04:03;;;;;;;11.23;8.10;;;5.30;94.90;;;;;;4996223;28;20440;-67
2021/11/27 06:06:30;;;;;;;9.80;8.07;;;5.40;94.90;;;;;;4996162;28;20454;-67
2021/11/27 06:08:57;;;;;;;10.37;8.20;;;5.40;94.70;;;;;;4996366;28;20475;-67
2021/11/27 06:11:24;;;;;;;10.50;7.57;;;5.40;94.50;;;;;;4996238;28;20480;-67
2021/11/27 06:13:51;;;;;;;7.70;7.00;;;5.40;94.50;;;;;;4996012;28;20966;-67
2021/11/27 06:16:18;;;;;;;9.17;7.53;;;5.40;94.40;;;;;;4996253;28;20451;-67
2021/11/27 06:18:44;;;;;;;10.80;7.33;;;5.40;94.30;;;;;;4995867;28;20469;-67
2021/11/27 06:21:13;;;;;;;8.80;7.90;;;5.40;94.00;;;;;;4995927;28;20456;-67
2021/11/27 06:23:39;;;;;;;9.27;7.03;;;5.40;93.80;;;;;;4995851;28;20459;-67
2021/11/27 06:26:06;;;;;;;8.47;7.57;;;5.40;93.80;;;;;;4996148;28;20452;-67
2021/11/27 06:28:34;;;;;;;9.60;7.60;;;5.40;93.80;;;;;;4996043;28;20468;-66
2021/11/27 06:31:00;;;;;;;10.03;8.53;;;5.40;94.00;;;;;;4995269;28;20931;-67
2021/11/27 06:33:27;;;;;;;13.90;9.20;;;5.40;94.00;;;;;;4995296;28;20817;-67
2021/11/27 06:35:54;;;;;;;11.83;9.17;;;5.40;94.10;;;;;;4995951;28;20453;-67
2021/11/27 06:38:22;;;;;;;13.73;8.90;;;5.40;94.10;;;;;;4995472;28;20942;-67
2021/11/27 06:40:50;;;;;;;9.33;8.30;;;5.40;94.20;;;;;;4996324;28;20452;-67
2021/11/27 06:43:17;;;;;;;11.97;9.53;;;5.40;94.20;;;;;;4995460;28;20448;-67
2021/11/27 06:45:43;;;;;;;16.20;9.17;;;5.40;94.20;;;;;;4995380;28;20452;-67
2021/11/27 06:48:10;;;;;;;12.70;9.13;;;5.40;94.20;;;;;;4995381;28;20930;-67
2021/11/27 06:50:37;;;;;;;14.33;9.47;;;5.40;94.20;;;;;;4995310;28;20452;-67
2021/11/27 06:53:04;;;;;;;19.57;9.83;;;5.40;94.20;;;;;;4995592;28;20484;-67
2021/11/27 06:55:33;;;;;;;15.20;10.00;;;5.40;94.30;;;;;;4995549;28;20444;-67
2021/11/27 06:58:00;;;;;;;14.03;9.70;;;5.40;94.20;;;;;;4995185;28;20965;-67
2021/11/27 07:00:27;;;;;;;12.53;10.00;;;5.40;94.10;;;;;;4995196;28;20468;-67
2021/11/27 07:02:54;;;;;;;13.00;9.40;;;5.30;94.10;;;;;;4995418;28;20447;-67
2021/11/27 07:05:21;;;;;;;16.40;10.73;;;5.30;94.10;;;;;;4995355;28;20475;-67
2021/11/27 07:07:47;;;;;;;14.07;11.30;;;5.30;94.10;;;;;;4995303;28;20456;-67
2021/11/27 07:10:15;;;;;;;17.73;11.23;;;5.30;94.20;;;;;;4995141;28;20468;-67
2021/11/27 07:12:43;;;;;;;14.27;10.50;;;5.30;94.10;;;;;;4995023;28;20834;-67
2021/11/27 07:15:10;;;;;;;18.20;11.33;;;5.30;94.20;;;;;;4995099;28;20444;-67
2021/11/27 07:17:37;;;;;;;17.20;12.30;;;5.30;94.20;;;;;;4994680;28;20942;-67
2021/11/27 07:20:06;;;;;;;16.93;10.43;;;5.30;94.10;;;;;;4994745;28;20487;-67
2021/11/27 07:22:33;;;;;;;13.57;11.37;;;5.30;94.20;;;;;;4995071;28;20440;-67
2021/11/27 07:25:00;;;;;;;14.77;12.00;;;5.30;94.20;;;;;;4994978;28;20834;-67
2021/11/27 07:27:27;;;;;;;15.30;11.63;;;5.30;94.30;;;;;;4994555;28;20956;-67
2021/11/27 07:29:55;;;;;;;15.50;10.77;;;5.30;94.30;;;;;;4994777;28;20579;-67
2021/11/27 07:32:22;;;;;;;17.70;11.10;;;5.30;94.20;;;;;;4994819;28;20518;-67
2021/11/27 07:34:49;;;;;;;19.73;11.00;;;5.30;94.10;;;;;;4994684;28;20471;-67
2021/11/27 07:37:16;;;;;;;14.50;10.77;;;5.30;94.10;;;;;;4994352;28;20954;-67
2021/11/27 07:39:43;;;;;;;17.60;13.17;;;5.40;94.20;;;;;;4994527;28;20807;-67
2021/11/27 07:42:09;;;;;;;18.97;11.57;;;5.40;94.20;;;;;;4994564;28;20454;-67
2021/11/27 07:44:36;;;;;;;19.70;10.80;;;5.40;94.10;;;;;;4994285;28;20935;-67
2021/11/27 07:47:05;;;;;;;16.70;10.80;;;5.30;94.00;;;;;;4994509;28;20852;-67
2021/11/27 07:49:31;;;;;;;15.87;10.93;;;5.30;94.00;;;;;;4994101;28;21000;-67
2021/11/27 07:51:58;;;;;;;12.97;10.73;;;5.30;93.90;;;;;;4994134;28;20471;-67
2021/11/27 07:54:25;;;;;;;16.50;11.20;;;5.30;93.80;;;;;;4994466;28;20536;-67
2021/11/27 07:56:52;;;;;;;16.50;11.50;;;5.30;93.80;;;;;;4994472;28;20447;-67
2021/11/27 07:59:19;;;;;;;15.20;10.20;;;5.30;93.70;;;;;;4994428;28;20472;-67
2021/11/27 08:01:46;;;;;;;18.50;12.17;;;5.40;93.60;;;;;;4994365;28;20425;-67
2021/11/27 08:04:17;;;;;;;18.13;10.40;;;5.40;93.60;;;;;;4994451;28;20444;-67
2021/11/27 08:06:44;;;;;;;17.50;12.50;;;5.40;93.50;;;;;;4994336;28;20440;-67
2021/11/27 08:09:11;;;;;;;14.70;10.37;;;5.40;93.40;;;;;;4993879;28;20983;-67
2021/11/27 08:11:38;;;;;;;14.77;10.10;;;5.40;93.20;;;;;;4994099;28;20444;-67
2021/11/27 08:14:04;;;;;;;10.77;9.33;;;5.40;93.10;;;;;;4994277;28;20439;-67
2021/11/27 08:16:31;;;;;;;13.93;9.83;;;5.50;93.10;;;;;;4994234;28;20464;-67
2021/11/27 08:18:58;;;;;;;15.00;10.80;;;5.50;93.00;;;;;;4993751;28;20467;-67
2021/11/27 08:21:26;;;;;;;12.53;9.97;;;5.40;92.90;;;;;;4993820;28;20463;-67
2021/11/27 08:23:53;;;;;;;20.50;11.10;;;5.50;92.90;;;;;;4994094;28;20539;-67
2021/11/27 08:26:20;;;;;;;24.60;11.60;;;5.40;92.90;;;;;;4994032;28;20455;-67
2021/11/27 08:28:47;;;;;;;16.00;10.67;;;5.40;93.00;;;;;;4993953;28;20478;-67
2021/11/27 08:31:15;;;;;;;15.00;9.47;;;5.50;93.10;;;;;;4994091;28;20456;-67
2021/11/27 08:33:42;;;;;;;16.20;10.43;;;5.50;93.20;;;;;;4993957;28;20480;-67
2021/11/27 08:36:09;;;;;;;19.57;10.40;;;5.40;93.10;;;;;;4993824;28;20985;-67
2021/11/27 08:38:37;;;;;;;16.20;10.97;;;5.50;93.20;;;;;;4993847;28;20464;-67
2021/11/27 08:41:07;;;;;;;17.50;10.57;;;5.50;93.30;;;;;;4993939;28;20444;-68
2021/11/27 08:43:35;;;;;;;15.47;9.73;;;5.50;93.30;;;;;;4994983;28;20444;-68
2021/11/27 08:46:02;;;;;;;25.47;10.87;;;5.40;93.40;;;;;;4993908;28;20455;-68
2021/11/27 08:48:29;;;;;;;18.40;11.00;;;5.40;93.40;;;;;;4993858;28;20455;-68
2021/11/27 08:50:56;;;;;;;20.47;10.40;;;5.50;93.60;;;;;;4993785;28;20455;-68
2021/11/27 08:53:23;;;;;;;16.17;10.70;;;5.40;93.50;;;;;;4993556;28;20563;-68
2021/11/27 08:55:51;;;;;;;21.10;11.07;;;5.50;93.60;;;;;;4995990;28;20444;-68
2021/11/27 08:58:18;;;;;;;20.83;10.80;;;5.50;93.90;;;;;;4997728;28;20432;-68
2021/11/27 09:00:45;;;;;;;16.73;9.77;;;5.60;93.60;;;;;;4997675;28;20448;-68
2021/11/27 09:03:12;;;;;;;18.33;9.53;;;5.60;93.50;;;;;;4997306;28;21012;-67
2021/11/27 09:05:39;;;;;;;14.30;10.50;;;5.60;93.50;;;;;;4997487;28;20463;-67
2021/11/27 09:08:06;;;;;;;9.10;7.50;;;5.50;93.40;;;;;;4997487;28;20459;-68
2021/11/27 09:10:33;;;;;;;14.83;8.97;;;5.50;93.20;;;;;;4997477;28;20510;-67
2021/11/27 09:13:01;;;;;;;12.80;8.97;;;5.50;93.10;;;;;;4997047;28;21005;-67
2021/11/27 09:15:28;;;;;;;14.43;8.93;;;5.40;92.90;;;;;;4997469;28;20887;-67
2021/11/27 09:17:56;;;;;;;14.73;9.50;;;5.40;93.20;;;;;;4997388;28;20429;-68
2021/11/27 09:20:23;;;;;;;10.30;8.70;;;5.50;93.40;;;;;;4997018;28;20476;-68
2021/11/27 09:22:50;;;;;;;14.93;8.20;;;5.50;93.20;;;;;;4997294;28;20444;-68
2021/11/27 09:25:16;;;;;;;10.40;7.60;;;5.50;93.20;;;;;;4997264;28;20444;-68
2021/11/27 09:27:43;;;;;;;12.27;7.60;;;5.60;93.00;;;;;;4997214;28;20448;-68
2021/11/27 09:30:12;;;;;;;11.07;7.90;;;5.60;92.90;;;;;;4997114;28;20464;-68
2021/11/27 09:32:39;;;;;;;19.47;9.10;;;5.70;92.70;;;;;;4997114;28;20495;-68
2021/11/27 09:35:07;;;;;;;10.70;7.03;;;5.70;92.30;;;;;;4997110;28;20452;-68
2021/11/27 09:37:34;;;;;;;10.00;7.90;;;5.70;92.40;;;;;;4997086;28;20444;-68
2021/11/27 09:40:09;;;;;;;14.27;7.63;;;5.70;92.50;;;;;;4996887;28;20464;-68
2021/11/27 09:42:37;;;;;;;10.60;8.20;;;5.70;92.40;;;;;;4996919;28;20428;-68
2021/11/27 09:45:06;;;;;;;11.17;7.10;;;5.70;92.30;;;;;;4996774;28;20456;-68
2021/11/27 09:47:35;;;;;;;13.90;7.27;;;5.70;91.80;;;;;;4996490;28;20444;-68
2021/11/27 09:50:05;;;;;;;9.50;7.30;;;5.70;92.00;;;;;;4996832;28;20475;-68
2021/11/27 09:52:32;;;;;;;13.80;8.07;;;5.80;91.80;;;;;;4996873;28;20476;-68
2021/11/27 09:54:59;;;;;;;9.87;7.30;;;5.90;91.90;;;;;;4996496;28;20947;-68
2021/11/27 09:57:27;;;;;;;9.43;7.23;;;5.90;91.60;;;;;;4996742;28;20476;-68
2021/11/27 09:59:53;;;;;;;12.17;7.63;;;5.80;91.40;;;;;;4996520;28;20476;-68
2021/11/27 10:02:24;;;;;;;10.93;7.13;;;5.90;91.60;;;;;;4997267;28;20455;-68
2021/11/27 10:04:54;;;;;;;10.00;7.03;;;5.90;91.80;;;;;;4996496;28;20439;-68
2021/11/27 10:07:22;;;;;;;11.63;6.87;;;6.00;91.80;;;;;;4995388;28;20439;-68
2021/11/27 10:09:51;;;;;;;11.97;6.37;;;6.10;91.50;;;;;;4996363;28;20922;-68
2021/11/27 10:12:20;;;;;;;10.47;7.30;;;6.20;91.40;;;;;;4996660;28;20455;-68
2021/11/27 10:14:48;;;;;;;9.40;7.70;;;6.20;91.10;;;;;;4996246;28;20448;-68
2021/11/27 10:17:16;;;;;;;12.13;7.27;;;6.30;91.20;;;;;;4996265;28;20448;-68
2021/11/27 10:20:00;;;;;;;16.27;7.60;;;6.30;91.10;;;;;;4995972;28;20479;-69
2021/11/27 10:22:42;;;;;;;6.07;5.47;;;6.30;90.70;;;;;;4996236;28;20428;-68
2021/11/27 10:25:27;;;;;;;11.27;7.10;;;6.40;90.20;;;;;;4996184;28;20432;-68
2021/11/27 10:28:00;;;;;;;8.37;5.10;;;6.40;90.20;;;;;;4996078;28;20436;-68
2021/11/27 10:30:26;;;;;;;8.80;6.20;;;6.40;89.30;;;;;;4995793;28;20468;-68
2021/11/27 10:32:55;;;;;;;7.60;5.63;;;6.50;89.70;;;;;;4995952;28;20506;-68
2021/11/27 10:35:23;;;;;;;9.23;5.10;;;6.50;89.80;;;;;;4996007;28;20459;-68
2021/11/27 10:37:53;;;;;;;10.43;5.70;;;6.60;88.80;;;;;;4995880;28;20436;-68
2021/11/27 10:40:25;;;;;;;12.53;5.50;;;6.70;87.80;;;;;;4995812;28;20943;-68
2021/11/27 10:42:55;;;;;;;11.50;5.40;;;6.80;87.80;;;;;;4995877;28;20436;-69
2021/11/27 10:45:24;;;;;;;8.50;4.57;;;7.00;87.40;;;;;;4995738;28;20468;-68
2021/11/27 10:47:53;;;;;;;7.63;5.00;;;7.10;86.40;;;;;;4995812;28;20432;-68
2021/11/27 10:50:25;;;;;;;10.13;4.70;;;7.20;84.30;;;;;;4995397;28;20479;-69
2021/11/27 10:52:54;;;;;;;10.53;4.63;;;7.20;82.80;;;;;;4995263;28;20997;-68
2021/11/27 10:55:22;;;;;;;9.23;4.30;;;7.30;82.40;;;;;;4995157;28;20448;-69
2021/11/27 10:57:51;;;;;;;7.83;4.20;;;7.50;82.30;;;;;;4995489;28;20456;-69
2021/11/27 11:00:32;;;;;;;7.07;3.67;;;7.60;80.50;;;;;;4995144;28;20475;-69
2021/11/27 11:03:00;;;;;;;8.87;3.83;;;7.80;79.30;;;;;;4995449;28;20436;-67
2021/11/27 11:05:36;;;;;;;7.97;4.27;;;7.90;78.40;;;;;;4995264;28;20807;-68
2021/11/27 11:08:04;;;;;;;8.67;4.20;;;8.20;78.50;;;;;;4995385;28;20865;-68
2021/11/27 11:10:33;;;;;;;10.27;4.10;;;8.50;77.60;;;;;;4994855;28;20464;-68
2021/11/27 11:13:02;;;;;;;6.70;4.03;;;8.90;75.80;;;;;;4995113;28;20487;-68
2021/11/27 11:15:31;;;;;;;6.40;3.20;;;9.20;72.60;;;;;;4994788;28;20964;-68
2021/11/27 11:18:13;;;;;;;8.77;4.07;;;9.50;70.40;;;;;;4994810;28;20455;-68
2021/11/27 11:20:45;;;;;;;10.60;3.60;;;9.70;70.40;;;;;;4994812;28;20468;-68
2021/11/27 11:23:15;;;;;;;12.07;3.90;;;10.00;68.40;;;;;;4995017;28;20436;-68
2021/11/27 11:26:00;;;;;;;5.60;3.60;;;10.40;67.40;;;;;;4994882;28;20817;-68
2021/11/27 11:28:31;;;;;;;8.07;3.77;;;10.80;65.40;;;;;;4994512;28;20447;-68
2021/11/27 11:31:04;;;;;;;8.37;4.10;;;11.00;62.50;;;;;;4994928;28;20807;-68
2021/11/27 11:33:33;;;;;;;9.27;3.63;;;11.30;61.00;;;;;;4994786;28;20928;-68
2021/11/27 11:36:03;;;;;;;4.80;2.97;;;11.60;59.70;;;;;;4994852;28;20456;-68
2021/11/27 11:38:30;;;;;;;7.40;3.40;;;11.90;59.10;;;;;;4994678;28;20824;-68
2021/11/27 11:40:57;;;;;;;7.50;3.10;;;12.10;58.50;;;;;;4994737;28;20475;-67
2021/11/27 11:43:24;;;;;;;10.87;3.50;;;12.30;57.20;;;;;;4994664;28;20502;-67
2021/11/27 11:45:51;;;;;;;10.23;3.40;;;12.10;56.10;;;;;;4994346;28;20870;-67
2021/11/27 11:48:25;;;;;;;7.50;3.07;;;12.00;56.70;;;;;;4994697;28;20436;-67
2021/11/27 11:51:04;;;;;;;9.93;4.00;;;11.70;55.80;;;;;;4993769;28;20437;-67
2021/11/27 11:53:39;;;;;;;6.60;3.60;;;11.80;57.60;;;;;;4994657;28;20209;-67
2021/11/27 11:56:07;;;;;;;9.87;3.80;;;11.80;56.20;;;;;;4994587;28;20441;-67
2021/11/27 11:58:37;;;;;;;10.83;3.30;;;11.90;56.90;;;;;;4994175;28;20452;-68
2021/11/27 12:01:07;;;;;;;16.60;3.83;;;12.10;56.80;;;;;;4994449;28;20491;-67
2021/11/27 12:03:41;;;;;;;12.10;3.70;;;12.30;57.00;;;;;;4994315;28;20448;-68
2021/11/27 12:06:12;;;;;;;10.80;3.20;;;12.60;56.00;;;;;;4994095;28;20444;-68
2021/11/27 12:09:07;;;;;;;9.30;3.30;;;12.90;55.30;;;;;;4994001;28;20560;-68
2021/11/27 12:11:58;;;;;;;9.43;4.10;;;12.90;53.80;;;;;;4992363;28;20462;-67
2021/11/27 12:14:55;;;;;;;9.50;3.10;;;12.90;53.50;;;;;;4995492;28;20469;-67
2021/11/27 12:17:22;;;;;;;10.80;3.23;;;12.70;52.90;;;;;;4994565;28;20416;-67
2021/11/27 12:19:50;;;;;;;7.33;2.50;;;12.40;53.50;;;;;;4994258;28;20991;-71
2021/11/27 12:22:41;;;;;;;7.73;2.90;;;12.40;55.10;;;;;;4994385;28;20808;-71
2021/11/27 12:25:13;;;;;;;9.00;2.67;;;12.10;55.30;;;;;;4995133;28;20536;-65
2021/11/27 12:28:21;;;;;;;13.17;3.40;;;11.50;55.50;;;;;;4993831;28;20922;-65
2021/11/27 12:31:02;;;;;;;4.80;2.20;;;10.90;57.40;;;;;;4992167;28;20817;-64
2021/11/27 12:33:47;;;;;;;6.50;3.33;;;10.60;59.00;;;;;;4993945;28;20472;-65
2021/11/27 12:36:39;;;;;;;7.93;2.70;;;10.50;59.20;;;;;;4993722;28;20811;-65
2021/11/27 12:39:09;;;;;;;8.17;2.37;;;10.60;59.20;;;;;;4993891;28;20940;-65
2021/11/27 12:41:38;;;;;;;12.03;2.97;;;10.50;58.50;;;;;;4993964;28;20441;-65
2021/11/27 12:44:28;;;;;;;5.83;2.70;;;10.60;58.70;;;;;;4993914;28;20456;-65
2021/11/27 12:46:57;;;;;;;8.80;3.43;;;10.60;57.70;;;;;;4989849;28;20499;-65
2021/11/27 12:49:58;;;;;;;8.83;2.80;;;10.50;58.10;;;;;;4993811;28;20490;-65
2021/11/27 12:52:39;;;;;;;8.37;3.23;;;10.40;58.80;;;;;;4993884;28;20437;-65
2021/11/27 12:55:33;;;;;;;6.90;2.90;;;10.50;59.40;;;;;;4993880;28;20468;-65
2021/11/27 12:58:00;;;;;;;12.77;3.13;;;10.50;59.00;;;;;;4993605;28;20432;-65
2021/11/27 13:00:28;;;;;;;11.60;3.23;;;10.50;59.20;;;;;;4993520;28;20845;-65